»·PEaware :: N8WG KASE-KGJT

N8WG :: KASE-KGJT

FLIGHT INFORMATION

Flight Status: Arrived
Operator: Privately registered:
United States
More flights under this callsign
Pilot: Austin M. (5128)
Aircraft: BEECH AIRCRAFT SUPER KING AIR COMMUTER
(BE20)
More flights by this aircraft type
Origin: KASE Aspen-Pitkin Co/Sardy
United States
Destination: KGJT Walker
United States
More flights between these airports :: More routes between these airports
Route: LINDZ V134 JNC
File this flight plan on PilotEdge
Remarks:
Altitude:
(Current/Filed)
220ft
Speed:
(Current/Filed)
260kts
Departed: 01-Sep-17 06:42 PM
Arrived: 01-Sep-17 07:21 PM
Distance/Time
Traveled:
77nm/0:38
Distance/Time
To Go:
Arrived

Flight Plot

Page will automatically refresh every two minutes.

Flight plan parsing failed; only flown route is shown


Map Options




Map Legend


Flown Route
Filed Route
Departure Airport
Arrival Airport
Navaid (VOR, NDB)
Fix

Horizontal Profiles

Position Reports

Time Latitude Longitude Heading Altitude Ground
Speed
01-Sep-17 18:29 39.222351 -106.866664 125 7821ft 0kts
01-Sep-17 18:30 39.222351 -106.866664 125 7821ft 0kts
01-Sep-17 18:31 39.222351 -106.866664 125 7821ft 0kts
01-Sep-17 18:32 39.222351 -106.866664 125 7821ft 0kts
01-Sep-17 18:33 39.222351 -106.866664 125 7821ft 0kts
01-Sep-17 18:34 39.222351 -106.866664 125 7821ft 0kts
01-Sep-17 18:35 39.222351 -106.866664 125 7821ft 0kts
01-Sep-17 18:36 39.222351 -106.866664 125 7821ft 0kts
01-Sep-17 18:37 39.222351 -106.866664 125 7821ft 0kts
01-Sep-17 18:38 39.222351 -106.866664 125 7821ft 0kts
01-Sep-17 18:39 39.222351 -106.866664 125 7821ft 0kts
01-Sep-17 18:40 39.222351 -106.866664 125 7821ft 0kts
01-Sep-17 18:41 39.222351 -106.866664 125 7821ft 0kts
01-Sep-17 18:42 39.222351 -106.866664 125 7821ft 0kts
01-Sep-17 18:43 39.222062 -106.866641 187 7821ft 3kts
01-Sep-17 18:44 39.218887 -106.865669 160 7821ft 25kts
01-Sep-17 18:45 39.215181 -106.863986 175 7821ft 10kts
01-Sep-17 18:46 39.215972 -106.865365 343 7821ft 59kts
01-Sep-17 18:47 39.250860 -106.882930 334 9231ft 193kts
01-Sep-17 18:48 39.309532 -106.887830 359 11060ft 228kts
01-Sep-17 18:49 39.367781 -106.888034 359 12745ft 210kts
01-Sep-17 18:50 39.401638 -106.920853 259 14338ft 205kts
01-Sep-17 18:51 39.393225 -106.978754 269 15625ft 200kts
01-Sep-17 18:52 39.390397 -107.045515 273 17118ft 192kts
01-Sep-17 18:53 39.389523 -107.109074 274 18515ft 188kts
01-Sep-17 18:54 39.386112 -107.175188 260 19666ft 196kts
01-Sep-17 18:55 39.373160 -107.241819 260 20816ft 195kts
01-Sep-17 18:56 39.360024 -107.309303 260 21687ft 205kts
01-Sep-17 18:57 39.345818 -107.381924 260 22311ft 220kts
01-Sep-17 18:58 39.329787 -107.463624 259 22267ft 250kts
01-Sep-17 18:59 39.312181 -107.552654 259 22220ft 262kts
01-Sep-17 19:00 39.294101 -107.643772 259 22218ft 265kts
01-Sep-17 19:01 39.275838 -107.735477 259 22218ft 267kts
01-Sep-17 19:02 39.237794 -107.812266 210 21514ft 275kts
01-Sep-17 19:03 39.171466 -107.860441 210 20535ft 285kts
01-Sep-17 19:04 39.110278 -107.923296 261 19517ft 290kts
01-Sep-17 19:05 39.107298 -108.023506 272 18550ft 278kts
01-Sep-17 19:06 39.117046 -108.119161 286 17558ft 271kts
01-Sep-17 19:07 39.133905 -108.213545 286 16555ft 270kts
01-Sep-17 19:08 39.150807 -108.306845 286 15611ft 267kts
01-Sep-17 19:09 39.167767 -108.399501 286 14758ft 265kts
01-Sep-17 19:10 39.184752 -108.491267 286 14143ft 259kts
01-Sep-17 19:11 39.201254 -108.580295 286 13987ft 251kts
01-Sep-17 19:12 39.209247 -108.666850 242 13987ft 256kts
01-Sep-17 19:13 39.147768 -108.710970 215 13990ft 260kts
01-Sep-17 19:14 39.089228 -108.764990 217 13990ft 261kts
01-Sep-17 19:15 39.035503 -108.735572 96 13346ft 262kts
01-Sep-17 19:16 39.011644 -108.646327 109 12875ft 264kts
01-Sep-17 19:17 38.983669 -108.561052 110 11983ft 256kts
01-Sep-17 19:18 38.956047 -108.477226 110 10448ft 254kts
01-Sep-17 19:19 38.932270 -108.396340 82 9626ft 233kts
01-Sep-17 19:20 38.972549 -108.336528 34 8654ft 227kts
01-Sep-17 19:21 39.021762 -108.366914 312 7864ft 221kts
01-Sep-17 19:22 39.058689 -108.422020 310 6712ft 155kts
01-Sep-17 19:23 39.080952 -108.455738 310 6077ft 127kts
01-Sep-17 19:24 39.104727 -108.489345 309 5390ft 125kts
01-Sep-17 19:25 39.122303 -108.521299 306 4849ft 25kts
01-Sep-17 19:26 39.121726 -108.524311 221 4839ft 0kts

Navigation Log

Ident Type
Flight plan parsing failed, navigation log unavailable